M I D A S
Marine Information and Data Acquisition System
Tripno 2058 of the Zeeleeuw from 2011-03-15 07:59:48 to 2011-03-15 15:20:23
Back to CruiseResearch ActivitiesStationsMapUnderway DataData graphs

EquipmentUnitsComment
TimeDGPSUTC
LatitudeDGPSDM.mWGS84
LongitudeDGPSDM.mWGS84
HeadingGyrodeg 
SOGDGPSknotsSpeed over ground
COGDGPSdegCourse over ground
DepthEcho soundermeters200 kHz
Missing or incorrect values are displayed as -999
Navigation data collected by the RV Zeeleeuw from 2011-03-15 07:57:52 to 2011-03-15 15:27:58
                                                                                    Next 1000 lines
Time Latitude Longitude Heading SOG COG Depth
2011-03-15 07:58:02 51°13.662 2°55.959 131.3 0.1 272 9.7
2011-03-15 07:58:07 51°13.662 2°55.96 131.5 0.1 9 -999
2011-03-15 07:58:12 51°13.662 2°55.959 130.9 0.1 232 9.7
2011-03-15 07:58:16 51°13.662 2°55.96 130.8 0.1 58 9.7
2011-03-15 07:58:21 51°13.662 2°55.96 130.8 0.1 184 9.9
2011-03-15 07:58:27 51°13.662 2°55.96 130.9 0.1 80 9.7
2011-03-15 07:58:32 51°13.662 2°55.96 130.8 0.1 155 9.7
2011-03-15 07:58:37 51°13.662 2°55.96 130.4 0.1 62 9.7
2011-03-15 07:58:41 51°13.662 2°55.96 129.7 -999 136 9.7
2011-03-15 07:58:46 51°13.662 2°55.96 128.8 0.1 81 9.6
2011-03-15 07:58:52 51°13.662 2°55.96 127.8 -999 121 9.7
2011-03-15 07:58:57 51°13.662 2°55.961 126.8 0.1 71 9.6
2011-03-15 07:59:01 51°13.662 2°55.961 125.7 -999 122 9.7
2011-03-15 07:59:06 51°13.662 2°55.961 124.5 0.1 77 9.5
2011-03-15 07:59:11 51°13.662 2°55.961 123.5 0.1 181 9.6
2011-03-15 07:59:16 51°13.662 2°55.961 122.4 -999 292 9.5
2011-03-15 07:59:21 51°13.662 2°55.961 121.5 0.1 216 9.6
2011-03-15 07:59:25 51°13.662 2°55.961 121 0.1 176 9.5
2011-03-15 07:59:30 51°13.662 2°55.961 120.3 -999 227 9.5
2011-03-15 07:59:36 51°13.661 2°55.961 119.5 0.1 209 9.5
2011-03-15 07:59:41 51°13.661 2°55.961 118.5 0.1 211 -999
2011-03-15 07:59:45 51°13.661 2°55.961 117.7 0.1 200 9.5
2011-03-15 07:59:50 51°13.661 2°55.961 116.9 0.1 186 9.7
2011-03-15 07:59:56 51°13.661 2°55.961 115.7 0.1 197 9.6
2011-03-15 08:00:01 51°13.661 2°55.961 114.7 0.1 216 9.5
2011-03-15 08:00:06 51°13.661 2°55.961 113.3 0.1 225 -999
2011-03-15 08:00:11 51°13.661 2°55.96 112.3 0.1 260 9.5
2011-03-15 08:00:16 51°13.661 2°55.96 111.6 0.4 286 9.5
2011-03-15 08:00:21 51°13.661 2°55.958 111 0.8 287 9.7
2011-03-15 08:00:25 51°13.662 2°55.956 110.6 1.2 289 9.9
2011-03-15 08:00:30 51°13.663 2°55.953 110.5 1.5 292 10.1
2011-03-15 08:00:35 51°13.664 2°55.949 110.5 1.9 291 10.1
2011-03-15 08:00:40 51°13.665 2°55.945 111 2.1 293 -999
2011-03-15 08:00:46 51°13.666 2°55.939 111.1 2.4 293 -999
2011-03-15 08:00:52 51°13.668 2°55.933 110.8 2.7 292 -999
2011-03-15 08:00:57 51°13.669 2°55.927 109.9 2.9 291 -999
2011-03-15 08:01:03 51°13.671 2°55.919 109.3 3.2 290 -999
2011-03-15 08:01:08 51°13.672 2°55.912 108.7 3.4 289 -999
2011-03-15 08:01:13 51°13.674 2°55.904 108.4 3.6 289 -999
2011-03-15 08:01:18 51°13.676 2°55.896 108.3 3.8 289 -999
2011-03-15 08:01:23 51°13.677 2°55.888 108.4 3.9 288 -999
2011-03-15 08:01:28 51°13.679 2°55.88 108.3 4 288 -999
2011-03-15 08:01:33 51°13.681 2°55.872 108.1 3.9 287 -999
2011-03-15 08:01:38 51°13.682 2°55.864 107.9 3.8 288 -999
2011-03-15 08:01:43 51°13.684 2°55.856 107.6 3.7 287 -999
2011-03-15 08:01:48 51°13.686 2°55.848 107.2 3.7 287 -999
2011-03-15 08:01:53 51°13.687 2°55.84 106.4 3.8 286 -999
2011-03-15 08:01:58 51°13.688 2°55.832 105.8 3.8 286 -999
2011-03-15 08:02:03 51°13.69 2°55.824 104.9 3.8 285 -999
2011-03-15 08:02:08 51°13.691 2°55.815 103.9 3.8 285 -999
2011-03-15 08:02:13 51°13.692 2°55.807 102.3 3.9 283 -999
2011-03-15 08:02:18 51°13.693 2°55.799 101 3.9 282 -999
2011-03-15 08:02:23 51°13.694 2°55.79 99.5 4 280 -999
2011-03-15 08:02:28 51°13.695 2°55.782 97.8 3.9 279 -999
2011-03-15 08:02:33 51°13.696 2°55.773 95.8 3.8 277 -999
2011-03-15 08:02:38 51°13.696 2°55.765 94.5 3.7 276 -999
2011-03-15 08:02:43 51°13.697 2°55.757 93 3.5 275 -999
2011-03-15 08:02:48 51°13.697 2°55.75 91.7 3.3 273 -999
2011-03-15 08:02:53 51°13.697 2°55.743 90.1 3.1 273 -999
2011-03-15 08:02:58 51°13.697 2°55.737 89.4 2.5 275 -999
2011-03-15 08:03:03 51°13.697 2°55.733 88.3 1.9 271 -999
2011-03-15 08:03:08 51°13.698 2°55.73 85.7 1.4 280 -999
2011-03-15 08:03:13 51°13.698 2°55.728 83 0.9 275 14.6
2011-03-15 08:03:18 51°13.698 2°55.727 79.8 0.7 295 14.6
2011-03-15 08:03:22 51°13.698 2°55.727 76.3 0.3 307 14.6
2011-03-15 08:03:27 51°13.699 2°55.726 72.3 0.4 351 14.6
2011-03-15 08:03:32 51°13.7 2°55.727 67.6 0.5 16 15
2011-03-15 08:03:37 51°13.701 2°55.727 62.8 0.7 21 14.6
2011-03-15 08:03:42 51°13.702 2°55.728 57.9 0.8 30 14.6
2011-03-15 08:03:46 51°13.703 2°55.729 53 1 24 14.5
2011-03-15 08:03:51 51°13.704 2°55.73 47.9 1.2 27 14.4
2011-03-15 08:03:56 51°13.706 2°55.731 42.9 1.3 22 14.4
2011-03-15 08:04:01 51°13.708 2°55.733 37.8 1.5 22 14.4
2011-03-15 08:04:06 51°13.71 2°55.734 32.8 1.5 18 14.5
2011-03-15 08:04:10 51°13.711 2°55.734 27.9 1.4 16 14.5
2011-03-15 08:04:15 51°13.713 2°55.734 23.4 0.9 6 14.5
2011-03-15 08:04:21 51°13.713 2°55.735 20.3 0.4 13 14.5
2011-03-15 08:04:26 51°13.713 2°55.734 17.2 0.2 256 14.5
2011-03-15 08:04:30 51°13.713 2°55.734 13.7 0.5 203 14.5
2011-03-15 08:04:35 51°13.711 2°55.734 10.9 0.8 196 14.5
2011-03-15 08:04:40 51°13.71 2°55.733 8.7 1.2 189 14.5
2011-03-15 08:04:45 51°13.708 2°55.733 6.8 1.3 190 14.5
2011-03-15 08:04:50 51°13.706 2°55.732 5.2 1.2 185 -999
2011-03-15 08:04:55 51°13.705 2°55.732 4 1 189 -999
2011-03-15 08:05:01 51°13.704 2°55.731 2.6 0.5 191 -999
2011-03-15 08:05:07 51°13.704 2°55.731 0.9 0.1 292 -999
2011-03-15 08:05:13 51°13.705 2°55.731 357.7 0.7 345 -999
2011-03-15 08:05:18 51°13.707 2°55.73 353.3 1.3 342 -999
2011-03-15 08:05:23 51°13.709 2°55.729 346.9 1.9 341 -999
2011-03-15 08:05:28 51°13.713 2°55.727 341.9 2.5 337 -999
2011-03-15 08:05:33 51°13.717 2°55.725 338.8 3.2 336 4.8
2011-03-15 08:05:38 51°13.722 2°55.721 337.6 3.7 335 14.5
2011-03-15 08:05:42 51°13.726 2°55.718 337.1 4.4 336 14.4
2011-03-15 08:05:47 51°13.732 2°55.713 336.7 5.2 332 14.4
2011-03-15 08:05:52 51°13.739 2°55.707 335.5 5.8 334 14.2
2011-03-15 08:05:57 51°13.747 2°55.701 335.8 6.3 334 14
2011-03-15 08:06:02 51°13.755 2°55.694 336.6 6.8 334 13.9
2011-03-15 08:06:06 51°13.763 2°55.689 336.1 7.2 334 13.5
2011-03-15 08:06:11 51°13.772 2°55.682 335.8 7.6 335 13.4
2011-03-15 08:06:17 51°13.784 2°55.673 336.2 8.1 335 13.5
2011-03-15 08:06:22 51°13.795 2°55.665 336.7 8.4 336 13.2
2011-03-15 08:06:26 51°13.804 2°55.659 338 8.6 337 13.3
2011-03-15 08:06:31 51°13.815 2°55.651 338.2 8.9 335 13.4
2011-03-15 08:06:36 51°13.827 2°55.642 337.3 9.2 335 13.2
2011-03-15 08:06:41 51°13.838 2°55.633 337.1 9.3 335 13.1
2011-03-15 08:06:46 51°13.85 2°55.624 337.1 9.5 335 13.2
2011-03-15 08:06:50 51°13.859 2°55.616 336.8 9.6 333 13.2
2011-03-15 08:06:55 51°13.872 2°55.608 336.9 9.7 336 13.2
2011-03-15 08:07:00 51°13.884 2°55.599 337.5 9.8 335 13.2
2011-03-15 08:07:05 51°13.896 2°55.589 337.5 9.9 335 13.2
2011-03-15 08:07:10 51°13.909 2°55.58 338 10 336 13.2
2011-03-15 08:07:14 51°13.919 2°55.573 338.6 10 336 13.2
2011-03-15 08:07:19 51°13.931 2°55.564 338.2 10.1 335 13.1
2011-03-15 08:07:25 51°13.947 2°55.553 337.7 10.1 336 13.1
2011-03-15 08:07:30 51°13.96 2°55.544 337.7 10.1 336 13.1
2011-03-15 08:07:34 51°13.97 2°55.536 337.5 10.2 335 13.1
2011-03-15 08:07:39 51°13.983 2°55.527 337.6 10.1 336 13.1
2011-03-15 08:07:44 51°13.995 2°55.517 337.5 10.2 334 13
2011-03-15 08:07:50 51°14.011 2°55.505 336.6 10.2 334 13
2011-03-15 08:07:54 51°14.021 2°55.498 336.6 10.2 335 12.7
2011-03-15 08:07:58 51°14.031 2°55.49 337.3 10.2 336 12.8
2011-03-15 08:08:04 51°14.047 2°55.479 337.7 10.3 336 13
2011-03-15 08:08:09 51°14.06 2°55.47 337.5 10.3 335 12.8
2011-03-15 08:08:14 51°14.073 2°55.461 337.8 10.4 336 12.8
2011-03-15 08:08:19 51°14.086 2°55.451 337.9 10.5 335 13
2011-03-15 08:08:24 51°14.1 2°55.441 337.1 10.6 335 12.8
2011-03-15 08:08:30 51°14.116 2°55.429 337.1 10.7 335 12.8
2011-03-15 08:08:34 51°14.126 2°55.421 336.8 10.7 334 12.8
2011-03-15 08:08:38 51°14.137 2°55.413 336.8 10.8 335 12.9
2011-03-15 08:08:44 51°14.153 2°55.4 336.9 10.8 335 12.7
2011-03-15 08:08:50 51°14.169 2°55.388 336.4 10.8 334 12.7
2011-03-15 08:08:54 51°14.18 2°55.379 336.4 10.8 334 12.8
2011-03-15 08:09:00 51°14.196 2°55.366 336.6 10.9 334 12.7
2011-03-15 08:09:04 51°14.207 2°55.357 335.8 10.9 333 12.9
2011-03-15 08:09:09 51°14.22 2°55.345 334.9 10.9 332 12.6
2011-03-15 08:09:14 51°14.234 2°55.334 333.9 10.9 331 12.7
2011-03-15 08:09:19 51°14.247 2°55.322 332.5 10.9 331 12.7
2011-03-15 08:09:25 51°14.263 2°55.308 332.3 11 330 12.7
2011-03-15 08:09:30 51°14.276 2°55.295 331.4 11 328 13.2
2011-03-15 08:09:34 51°14.286 2°55.285 331.1 11.1 329 12.7
2011-03-15 08:09:40 51°14.302 2°55.269 330.4 11.2 327 -999
2011-03-15 08:09:46 51°14.318 2°55.253 330.1 11.4 328 13
2011-03-15 08:09:50 51°14.329 2°55.242 330.4 11.5 328 12.8
2011-03-15 08:09:55 51°14.343 2°55.229 330.6 11.6 329 12.7
2011-03-15 08:10:01 51°14.359 2°55.213 331.5 11.7 328 -999
2011-03-15 08:10:06 51°14.373 2°55.199 331.6 11.8 329 12.8
2011-03-15 08:10:10 51°14.385 2°55.188 331.4 12 328 -999
2011-03-15 08:10:16 51°14.401 2°55.171 330.3 12.1 327 12.8
2011-03-15 08:10:21 51°14.416 2°55.156 329.8 12.2 327 12.7
2011-03-15 08:10:26 51°14.43 2°55.14 329.1 12.3 324 -999
2011-03-15 08:10:30 51°14.441 2°55.127 326.7 12.4 324 12.7
2011-03-15 08:10:35 51°14.455 2°55.112 326.6 12.4 325 12.7
2011-03-15 08:10:40 51°14.469 2°55.095 326.2 12.5 324 12.8
2011-03-15 08:10:45 51°14.483 2°55.079 326.1 12.7 326 13
2011-03-15 08:10:50 51°14.498 2°55.064 327.6 12.8 326 13.1
2011-03-15 08:10:54 51°14.51 2°55.051 328 12.9 326 13.4
2011-03-15 08:10:59 51°14.525 2°55.035 327.9 12.9 326 13.5
2011-03-15 08:11:04 51°14.54 2°55.02 327.5 12.9 327 13.7
2011-03-15 08:11:09 51°14.555 2°55.004 327.6 13 326 13.8
2011-03-15 08:11:14 51°14.57 2°54.987 326.5 13.1 326 13.6
2011-03-15 08:11:19 51°14.585 2°54.971 326.3 13 327 13.4
2011-03-15 08:11:24 51°14.599 2°54.954 324.8 13 326 13.2
2011-03-15 08:11:29 51°14.615 2°54.939 324.5 13.1 329 13.2
2011-03-15 08:11:34 51°14.63 2°54.925 326.1 13.1 331 13.3
2011-03-15 08:11:39 51°14.646 2°54.911 327.9 13.1 330 13.4
2011-03-15 08:11:44 51°14.662 2°54.896 327.4 13.1 329 13.2
2011-03-15 08:11:49 51°14.677 2°54.881 326.6 13 327 13.3
2011-03-15 08:11:54 51°14.692 2°54.865 324.9 13 327 13.2
2011-03-15 08:11:59 51°14.707 2°54.849 324.2 13 327 13.4
2011-03-15 08:12:04 51°14.722 2°54.833 324.1 13 327 13.3
2011-03-15 08:12:09 51°14.737 2°54.818 324.4 12.9 327 13.4
2011-03-15 08:12:14 51°14.752 2°54.802 324.1 12.9 326 13.2
2011-03-15 08:12:19 51°14.768 2°54.786 324.6 13 328 13.3
2011-03-15 08:12:24 51°14.782 2°54.77 323.9 12.9 325 13.2
2011-03-15 08:12:30 51°14.8 2°54.751 323.1 13 326 13.5
2011-03-15 08:12:34 51°14.812 2°54.737 322.9 13 324 13.1
2011-03-15 08:12:38 51°14.823 2°54.723 320.9 12.9 323 12.9
2011-03-15 08:12:44 51°14.84 2°54.703 320.2 12.8 322 13
2011-03-15 08:12:49 51°14.853 2°54.684 319.1 12.8 320 13.1
2011-03-15 08:12:54 51°14.867 2°54.667 318.3 12.8 321 13.5
2011-03-15 08:12:59 51°14.881 2°54.648 317.2 12.8 318 13.2
2011-03-15 08:13:04 51°14.894 2°54.629 316.3 12.9 319 13.1
2011-03-15 08:13:09 51°14.907 2°54.61 316.3 12.9 319 13.1
2011-03-15 08:13:14 51°14.921 2°54.593 316.4 12.8 320 13.5
2011-03-15 08:13:18 51°14.932 2°54.577 316 12.8 319 13.1
2011-03-15 08:13:24 51°14.948 2°54.556 317.1 12.9 322 12.9
2011-03-15 08:13:29 51°14.962 2°54.537 317.6 12.9 320 13.6
2011-03-15 08:13:34 51°14.976 2°54.52 318.1 12.9 322 13.4
2011-03-15 08:13:39 51°14.99 2°54.502 320.1 12.9 323 13.6
2011-03-15 08:13:44 51°15.005 2°54.485 321 13 324 13.1
2011-03-15 08:13:49 51°15.019 2°54.468 321.9 13 323 12.9
2011-03-15 08:13:54 51°15.034 2°54.451 321.5 13 322 13.7
2011-03-15 08:13:58 51°15.045 2°54.436 319.7 13 320 13.1
2011-03-15 08:14:04 51°15.062 2°54.414 318.3 13 320 13.6
2011-03-15 08:14:09 51°15.075 2°54.395 317.5 13 319 13.5
2011-03-15 08:14:14 51°15.089 2°54.377 317.1 13 319 13.3
2011-03-15 08:14:19 51°15.102 2°54.357 316.9 13.1 319 13.4
2011-03-15 08:14:25 51°15.119 2°54.334 316.9 13.1 319 13.5
2011-03-15 08:14:29 51°15.13 2°54.319 317.3 13.1 319 14
2011-03-15 08:14:34 51°15.144 2°54.301 317.6 13 320 13.9
2011-03-15 08:14:39 51°15.158 2°54.283 318.6 13 321 14
2011-03-15 08:14:44 51°15.172 2°54.264 318.8 13.1 321 13.8
2011-03-15 08:14:49 51°15.186 2°54.246 319.3 13.1 321 13.7
2011-03-15 08:14:54 51°15.2 2°54.228 319.2 13.1 321 13.6
2011-03-15 08:14:59 51°15.214 2°54.21 318.8 13.1 321 13.6
2011-03-15 08:15:04 51°15.228 2°54.191 318.4 13.1 320 14.2
2011-03-15 08:15:09 51°15.242 2°54.173 318 13.1 320 14
2011-03-15 08:15:14 51°15.256 2°54.155 317.9 13 320 13.9
2011-03-15 08:15:19 51°15.27 2°54.136 318 13 320 13.7
2011-03-15 08:15:24 51°15.284 2°54.118 318.1 13 321 13.6
2011-03-15 08:15:29 51°15.298 2°54.1 318.5 13.1 321 13.6
2011-03-15 08:15:34 51°15.312 2°54.082 318.6 13.1 321 13.6
2011-03-15 08:15:39 51°15.326 2°54.064 318.8 13 321 13.8
2011-03-15 08:15:44 51°15.34 2°54.046 319.1 13 321 13.6
2011-03-15 08:15:49 51°15.355 2°54.028 319.1 13 321 13.4
2011-03-15 08:15:54 51°15.369 2°54.01 319.2 13 321 13.7
2011-03-15 08:15:59 51°15.383 2°53.992 319.4 13 321 13.8
2011-03-15 08:16:04 51°15.397 2°53.974 319.4 13 322 14
2011-03-15 08:16:09 51°15.411 2°53.956 319.4 13 322 13.8
2011-03-15 08:16:14 51°15.425 2°53.939 319.9 13 322 14.2
2011-03-15 08:16:19 51°15.44 2°53.921 320.2 13 323 14
2011-03-15 08:16:24 51°15.454 2°53.904 320.7 13.1 323 13.9
2011-03-15 08:16:29 51°15.468 2°53.887 321 13 323 13.7
2011-03-15 08:16:34 51°15.483 2°53.87 321.4 13 324 13.7
2011-03-15 08:16:38 51°15.495 2°53.856 321.7 13 324 13.9
2011-03-15 08:16:44 51°15.512 2°53.835 321.7 12.9 323 14.4
2011-03-15 08:16:50 51°15.529 2°53.815 321.5 13 323 14.5
2011-03-15 08:16:54 51°15.541 2°53.801 321.3 13 323 14.1
2011-03-15 08:16:58 51°15.552 2°53.787 321 13 323 14
2011-03-15 08:17:04 51°15.569 2°53.766 320.9 13 322 14
2011-03-15 08:17:09 51°15.584 2°53.749 320.9 12.9 323 14.2
2011-03-15 08:17:14 51°15.598 2°53.732 321.5 12.9 324 14.3
2011-03-15 08:17:19 51°15.612 2°53.715 321.4 12.9 323 14
2011-03-15 08:17:24 51°15.627 2°53.698 321.3 12.9 323 14.4
2011-03-15 08:17:29 51°15.641 2°53.681 321.4 13 323 14.3
2011-03-15 08:17:34 51°15.656 2°53.664 321.4 12.9 323 14.4
2011-03-15 08:17:39 51°15.67 2°53.647 321.5 12.9 323 14.3
2011-03-15 08:17:44 51°15.685 2°53.629 321.5 12.9 324 13.7
2011-03-15 08:17:49 51°15.699 2°53.612 321.5 13 323 14
2011-03-15 08:17:54 51°15.714 2°53.595 321.5 13 323 13.7
2011-03-15 08:17:59 51°15.728 2°53.578 321.3 13 323 14
2011-03-15 08:18:04 51°15.742 2°53.561 320.9 13 323 14.5
2011-03-15 08:18:09 51°15.757 2°53.544 320.9 13 323 14.2
2011-03-15 08:18:14 51°15.771 2°53.526 320.9 13 323 14.3
2011-03-15 08:18:19 51°15.786 2°53.509 320.9 13.1 324 13.7
2011-03-15 08:18:24 51°15.8 2°53.492 321 13 325 14.1
2011-03-15 08:18:29 51°15.816 2°53.476 322.5 13 327 14
2011-03-15 08:18:34 51°15.831 2°53.461 324.7 12.9 328 14.4
2011-03-15 08:18:39 51°15.846 2°53.447 326.5 12.9 329 14
2011-03-15 08:18:44 51°15.862 2°53.433 327.7 13.1 331 14.4
2011-03-15 08:18:49 51°15.879 2°53.42 328.5 13.1 331 13.7
2011-03-15 08:18:54 51°15.895 2°53.406 329.2 13.2 332 13.5
2011-03-15 08:18:59 51°15.911 2°53.393 330.1 13.1 332 13.4
2011-03-15 08:19:04 51°15.927 2°53.38 330.7 13.2 334 13.5
2011-03-15 08:19:09 51°15.943 2°53.367 331.2 13.1 334 13.6
2011-03-15 08:19:14 51°15.96 2°53.354 331.8 13.1 334 13.9
2011-03-15 08:19:19 51°15.976 2°53.341 332 13.2 334 13.9
2011-03-15 08:19:24 51°15.992 2°53.328 332.2 13.1 334 13.6
2011-03-15 08:19:29 51°16.009 2°53.316 332 13.1 334 13.6
2011-03-15 08:19:34 51°16.025 2°53.303 331.8 13.2 334 13.8
2011-03-15 08:19:38 51°16.038 2°53.292 331.8 13.2 334 13.9
2011-03-15 08:19:44 51°16.058 2°53.277 331.9 13.2 334 13.7
2011-03-15 08:19:49 51°16.074 2°53.264 331.9 13.2 334 13.9
2011-03-15 08:19:54 51°16.091 2°53.253 332.1 13.2 334 14
2011-03-15 08:19:58 51°16.104 2°53.243 332.2 13.2 334 14.1
2011-03-15 08:20:04 51°16.124 2°53.228 332.4 13.2 334 14.2
2011-03-15 08:20:09 51°16.141 2°53.215 332.2 13.2 334 14
2011-03-15 08:20:14 51°16.157 2°53.202 331.9 13.2 334 13.8
2011-03-15 08:20:19 51°16.173 2°53.189 331.5 13.2 334 13.9
2011-03-15 08:20:24 51°16.189 2°53.175 331.1 13.2 333 14.1
2011-03-15 08:20:29 51°16.206 2°53.162 331.1 13.2 334 14.1
2011-03-15 08:20:34 51°16.222 2°53.149 331.5 13.2 334 14
2011-03-15 08:20:39 51°16.239 2°53.136 331.6 13.2 334 14.2
2011-03-15 08:20:44 51°16.255 2°53.123 331.6 13.2 334 14
2011-03-15 08:20:49 51°16.271 2°53.11 331.5 13.3 334 14.2
2011-03-15 08:20:54 51°16.288 2°53.098 331.5 13.2 334 14.2
2011-03-15 08:20:58 51°16.301 2°53.088 331.5 13.2 334 14.3
2011-03-15 08:21:04 51°16.321 2°53.072 331.6 13.2 334 14.2
2011-03-15 08:21:09 51°16.337 2°53.059 331.8 13.2 334 14.1
2011-03-15 08:21:14 51°16.353 2°53.047 331.8 13.2 334 14.2
2011-03-15 08:21:19 51°16.37 2°53.034 331.8 13.2 334 14
2011-03-15 08:21:24 51°16.386 2°53.021 331.6 13.2 334 14.3
2011-03-15 08:21:29 51°16.403 2°53.007 331.3 13.2 333 14.2
2011-03-15 08:21:34 51°16.419 2°52.994 331.3 13.2 334 14
2011-03-15 08:21:39 51°16.435 2°52.981 331.3 13.2 333 14.1
2011-03-15 08:21:44 51°16.452 2°52.968 331.5 13.2 334 14.1
2011-03-15 08:21:49 51°16.468 2°52.955 331.6 13.2 334 14.1
2011-03-15 08:21:54 51°16.485 2°52.942 331.8 13.2 334 14.2
2011-03-15 08:21:59 51°16.501 2°52.929 332 13.2 334 14.1
2011-03-15 08:22:04 51°16.518 2°52.916 332 13.2 334 13.9
2011-03-15 08:22:09 51°16.534 2°52.903 331.9 13.3 334 14
2011-03-15 08:22:14 51°16.551 2°52.89 331.8 13.2 334 14.1
2011-03-15 08:22:19 51°16.567 2°52.878 331.8 13.2 334 13.9
2011-03-15 08:22:24 51°16.584 2°52.865 331.8 13.2 334 13.7
2011-03-15 08:22:29 51°16.6 2°52.853 331.8 13.2 334 13.6
2011-03-15 08:22:34 51°16.617 2°52.839 331.8 13.2 334 13.5
2011-03-15 08:22:39 51°16.633 2°52.827 332 13.2 334 13.7
2011-03-15 08:22:44 51°16.65 2°52.814 332 13.2 334 13.6
2011-03-15 08:22:49 51°16.666 2°52.801 332 13.2 334 13.5
2011-03-15 08:22:54 51°16.682 2°52.788 331.7 13.2 334 13.2
2011-03-15 08:22:59 51°16.699 2°52.774 331.4 13.3 333 12.9
2011-03-15 08:23:04 51°16.715 2°52.761 331.3 13.2 334 12.6
2011-03-15 08:23:09 51°16.731 2°52.749 331.3 13.2 333 12.7
2011-03-15 08:23:14 51°16.748 2°52.735 331.1 13.1 333 12.2
2011-03-15 08:23:19 51°16.764 2°52.722 331.1 13.1 333 11.7
2011-03-15 08:23:24 51°16.78 2°52.709 331.1 13.1 334 12
2011-03-15 08:23:29 51°16.796 2°52.696 331.2 13.1 334 12.2
2011-03-15 08:23:34 51°16.812 2°52.683 331.3 13.1 334 11.9
2011-03-15 08:23:39 51°16.829 2°52.67 331.4 13.1 333 11.6
2011-03-15 08:23:44 51°16.845 2°52.657 331.2 13.1 333 11.6
2011-03-15 08:23:49 51°16.861 2°52.644 331.1 13 334 11.6
2011-03-15 08:23:54 51°16.877 2°52.632 331.6 13.1 335 11.8
2011-03-15 08:23:59 51°16.894 2°52.619 332.6 13.1 335 11.9
2011-03-15 08:24:04 51°16.91 2°52.607 333.3 13.2 335 12.1
2011-03-15 08:24:09 51°16.927 2°52.595 333.9 13.2 336 12
2011-03-15 08:24:14 51°16.944 2°52.583 333.9 13.2 335 11.9
2011-03-15 08:24:19 51°16.96 2°52.57 333.9 13.2 335 12
2011-03-15 08:24:24 51°16.977 2°52.558 333.8 13.2 335 12.2
2011-03-15 08:24:29 51°16.993 2°52.546 333.7 13.2 335 11.9
2011-03-15 08:24:34 51°17.01 2°52.534 333.8 13.3 336 11.4
2011-03-15 08:24:39 51°17.026 2°52.522 334 13 335 11.4
2011-03-15 08:24:44 51°17.043 2°52.51 334 13.1 336 11.6
2011-03-15 08:24:49 51°17.06 2°52.498 333.9 13.1 335 11.9
2011-03-15 08:24:54 51°17.076 2°52.486 333.8 13.2 336 11.9
2011-03-15 08:24:59 51°17.093 2°52.474 333.9 13.2 336 12.2
2011-03-15 08:25:04 51°17.109 2°52.462 334.1 13.3 336 12.2
2011-03-15 08:25:09 51°17.126 2°52.449 334.1 13.3 335 12.3
2011-03-15 08:25:14 51°17.143 2°52.438 334 13.2 336 12.2
2011-03-15 08:25:18 51°17.156 2°52.428 333.8 13.3 335 12.2
2011-03-15 08:25:24 51°17.177 2°52.413 333.8 13.4 336 12
2011-03-15 08:25:29 51°17.193 2°52.401 334 13.3 336 12.1
2011-03-15 08:25:34 51°17.21 2°52.389 334 13.3 336 12.1
2011-03-15 08:25:39 51°17.227 2°52.377 333.9 13.3 335 12.4
2011-03-15 08:25:44 51°17.244 2°52.365 333.7 13.4 336 12.8
2011-03-15 08:25:49 51°17.261 2°52.353 333.2 13.4 335 12.7
2011-03-15 08:25:54 51°17.277 2°52.341 333.2 13.3 336 12.9
2011-03-15 08:25:59 51°17.294 2°52.328 333.2 13.4 335 12.8
2011-03-15 08:26:04 51°17.311 2°52.316 333.2 13.3 336 12.5
2011-03-15 08:26:09 51°17.328 2°52.304 333.3 13.3 335 12.7
2011-03-15 08:26:14 51°17.345 2°52.291 333.2 13.3 336 12.8
2011-03-15 08:26:19 51°17.362 2°52.279 333.2 13.3 335 13
2011-03-15 08:26:24 51°17.378 2°52.266 333.1 13.3 335 12.8
2011-03-15 08:26:29 51°17.395 2°52.254 332.9 13.3 335 13.2
2011-03-15 08:26:34 51°17.412 2°52.241 332.5 13.3 334 13.6
2011-03-15 08:26:39 51°17.428 2°52.228 332.5 13.4 334 13.8
2011-03-15 08:26:44 51°17.445 2°52.215 332.5 13.4 334 13.4
2011-03-15 08:26:49 51°17.462 2°52.202 332.5 13.4 334 13.2
2011-03-15 08:26:54 51°17.478 2°52.19 332.6 13.3 334 13.8
2011-03-15 08:26:59 51°17.495 2°52.177 332.6 13.4 335 13.8
2011-03-15 08:27:04 51°17.512 2°52.165 332.8 13.3 335 13.7
2011-03-15 08:27:09 51°17.529 2°52.152 332.9 13.3 335 13.4
2011-03-15 08:27:14 51°17.546 2°52.14 333.1 13.3 336 13.4
2011-03-15 08:27:18 51°17.559 2°52.13 333.2 13.3 336 13.7
2011-03-15 08:27:24 51°17.579 2°52.115 333.4 13.3 335 13.6
2011-03-15 08:27:29 51°17.596 2°52.103 333.5 13.3 336 13.7
2011-03-15 08:27:34 51°17.613 2°52.091 333.3 13.3 335 13.6
2011-03-15 08:27:38 51°17.626 2°52.081 333.1 13.3 336 13.5
2011-03-15 08:27:44 51°17.646 2°52.066 333.2 13.2 336 13.4
2011-03-15 08:27:49 51°17.663 2°52.054 333.3 13.2 336 13.1
2011-03-15 08:27:54 51°17.68 2°52.042 333.7 13.2 336 12.8
2011-03-15 08:27:59 51°17.696 2°52.029 333.6 13.2 335 13.6
2011-03-15 08:28:04 51°17.713 2°52.017 333.4 13.2 335 13.2
2011-03-15 08:28:09 51°17.73 2°52.005 333.4 13.3 335 13
2011-03-15 08:28:14 51°17.746 2°51.992 333.4 13.2 335 12.5
2011-03-15 08:28:19 51°17.763 2°51.98 333.5 13.2 336 12.4
2011-03-15 08:28:24 51°17.779 2°51.968 333.4 13.2 335 12.5
2011-03-15 08:28:29 51°17.796 2°51.955 333.2 13.2 336 12.2
2011-03-15 08:28:34 51°17.813 2°51.942 333.4 13.3 335 12.1
2011-03-15 08:28:39 51°17.829 2°51.93 333.6 13.2 335 12.3
2011-03-15 08:28:44 51°17.846 2°51.918 333.5 13.2 335 12.2
2011-03-15 08:28:49 51°17.862 2°51.906 333.3 13.2 335 12.2
2011-03-15 08:28:54 51°17.879 2°51.893 333.3 13.2 335 12
2011-03-15 08:28:59 51°17.895 2°51.881 333.5 13.2 336 12.5
2011-03-15 08:29:04 51°17.912 2°51.869 333.9 13.2 336 12.5
2011-03-15 08:29:09 51°17.929 2°51.857 334.1 13.2 336 12.5
2011-03-15 08:29:14 51°17.945 2°51.845 334.1 13.2 336 12.5
2011-03-15 08:29:19 51°17.962 2°51.833 334 13.2 336 13
2011-03-15 08:29:24 51°17.979 2°51.821 334 13.3 336 12.7
2011-03-15 08:29:29 51°17.995 2°51.809 333.8 13.2 336 12.5
2011-03-15 08:29:34 51°18.012 2°51.797 333.9 13.2 336 12.6
2011-03-15 08:29:39 51°18.028 2°51.785 333.7 13.2 336 12.6
2011-03-15 08:29:44 51°18.045 2°51.773 333.6 13.2 336 12.7
2011-03-15 08:29:49 51°18.062 2°51.76 333.6 13.2 335 12.8
2011-03-15 08:29:54 51°18.078 2°51.748 333.2 13.2 335 12.8
2011-03-15 08:29:59 51°18.095 2°51.735 333 13.3 334 13.3
2011-03-15 08:30:04 51°18.112 2°51.723 332.6 13.2 335 12.7
2011-03-15 08:30:09 51°18.128 2°51.711 332.5 13.1 335 12.8
2011-03-15 08:30:14 51°18.144 2°51.698 332.5 13.2 336 13.6
2011-03-15 08:30:19 51°18.161 2°51.686 332.8 13.2 335 13.5
2011-03-15 08:30:24 51°18.178 2°51.673 333.1 13.3 336 13.5
2011-03-15 08:30:29 51°18.194 2°51.661 333.4 13.2 335 13.7
2011-03-15 08:30:34 51°18.211 2°51.649 333.2 13.1 335 13.8
2011-03-15 08:30:39 51°18.227 2°51.636 333.1 13.2 335 13.8
2011-03-15 08:30:44 51°18.244 2°51.624 332.8 13.3 335 13.8
2011-03-15 08:30:49 51°18.261 2°51.611 333.1 13.2 335 13.7
2011-03-15 08:30:54 51°18.277 2°51.599 333.3 13.2 335 14.3
2011-03-15 08:30:58 51°18.291 2°51.589 333.5 13.2 335 14.3
2011-03-15 08:31:04 51°18.311 2°51.574 333.5 13.2 334 14
2011-03-15 08:31:09 51°18.327 2°51.561 333.2 13.3 335 14.4
2011-03-15 08:31:14 51°18.344 2°51.549 333.2 13.3 335 14.4
2011-03-15 08:31:18 51°18.357 2°51.539 333.5 13.3 335 14.4
2011-03-15 08:31:24 51°18.377 2°51.525 333.6 13.3 336 14.5
2011-03-15 08:31:29 51°18.394 2°51.512 334 13.3 336 14.5
2011-03-15 08:31:34 51°18.411 2°51.5 333.9 13.3 335 14.7
2011-03-15 08:31:39 51°18.427 2°51.488 333.6 13.3 336 14.6
2011-03-15 08:31:44 51°18.444 2°51.476 333.2 13.2 336 14.8
2011-03-15 08:31:49 51°18.46 2°51.463 333.3 13.2 335 15.2
2011-03-15 08:31:54 51°18.477 2°51.451 333.4 13.2 335 15.5
2011-03-15 08:31:59 51°18.494 2°51.439 333.5 13.3 336 15.5
2011-03-15 08:32:04 51°18.511 2°51.427 333.7 13.4 336 15.4
2011-03-15 08:32:09 51°18.528 2°51.414 333.8 13.3 336 15.3
2011-03-15 08:32:14 51°18.544 2°51.402 333.5 13.4 335 15.7
2011-03-15 08:32:19 51°18.561 2°51.39 333.3 13.4 335 15.6
2011-03-15 08:32:24 51°18.577 2°51.377 333.2 13.4 335 15.9
2011-03-15 08:32:29 51°18.594 2°51.365 333.1 13.3 335 16
2011-03-15 08:32:34 51°18.611 2°51.352 332.7 13.3 335 16.1
2011-03-15 08:32:39 51°18.627 2°51.34 332.5 13.3 335 16.2
2011-03-15 08:32:44 51°18.644 2°51.327 332.6 13.3 335 16.1
2011-03-15 08:32:49 51°18.661 2°51.315 332.8 13.3 335 16.1
2011-03-15 08:32:54 51°18.678 2°51.302 332.9 13.4 335 16.2
2011-03-15 08:32:59 51°18.695 2°51.29 332.9 13.3 335 16.1
2011-03-15 08:33:04 51°18.711 2°51.277 332.9 13.4 335 16.7
2011-03-15 08:33:09 51°18.728 2°51.265 333.2 13.4 335 16.5
2011-03-15 08:33:14 51°18.745 2°51.253 333.3 13.3 336 16.7
2011-03-15 08:33:19 51°18.762 2°51.24 333.4 13.4 336 17
2011-03-15 08:33:24 51°18.779 2°51.228 333.6 13.4 336 16.8
2011-03-15 08:33:29 51°18.796 2°51.216 333.8 13.3 336 16.5
2011-03-15 08:33:34 51°18.813 2°51.204 333.8 13.4 336 16.8
2011-03-15 08:33:39 51°18.83 2°51.192 333.8 13.4 336 16.9
2011-03-15 08:33:44 51°18.847 2°51.18 333.6 13.5 336 17.3
2011-03-15 08:33:49 51°18.864 2°51.167 333.5 13.4 335 17.1
2011-03-15 08:33:54 51°18.88 2°51.155 333.2 13.4 335 17
2011-03-15 08:33:58 51°18.894 2°51.145 333.2 13.4 335 16.8
2011-03-15 08:34:04 51°18.914 2°51.13 333.2 13.4 335 17.1
2011-03-15 08:34:09 51°18.931 2°51.117 333.2 13.4 335 17.4
2011-03-15 08:34:14 51°18.947 2°51.105 333.2 13.3 336 17.1
2011-03-15 08:34:18 51°18.961 2°51.095 333.3 13.4 336 17.1
2011-03-15 08:34:24 51°18.981 2°51.08 333.3 13.4 335 17.3
2011-03-15 08:34:29 51°18.998 2°51.068 333.4 13.4 336 16.9
2011-03-15 08:34:34 51°19.015 2°51.055 333.5 13.4 335 16.7
2011-03-15 08:34:39 51°19.032 2°51.043 333.4 13.4 336 16.9
2011-03-15 08:34:44 51°19.049 2°51.03 333.3 13.5 335 16.8
2011-03-15 08:34:49 51°19.066 2°51.018 333.2 13.5 335 17.1
2011-03-15 08:34:54 51°19.083 2°51.005 333.1 13.5 335 17.1
2011-03-15 08:34:59 51°19.099 2°50.992 333.1 13.4 335 17
2011-03-15 08:35:04 51°19.116 2°50.98 332.9 13.3 335 17.5
2011-03-15 08:35:09 51°19.133 2°50.967 332.8 13.4 335 16.9
2011-03-15 08:35:14 51°19.15 2°50.954 332.9 13.5 335 16.8
2011-03-15 08:35:19 51°19.167 2°50.941 332.7 13.5 335 16.6
2011-03-15 08:35:24 51°19.183 2°50.928 332.8 13.4 334 16.6
2011-03-15 08:35:29 51°19.2 2°50.915 332.7 13.4 335 16.8
2011-03-15 08:35:34 51°19.217 2°50.902 332.8 13.4 335 16.7
2011-03-15 08:35:39 51°19.233 2°50.89 333.1 13.4 335 16.5
2011-03-15 08:35:44 51°19.25 2°50.877 333.1 13.4 335 16.3
2011-03-15 08:35:49 51°19.267 2°50.864 333.2 13.4 335 16.2
2011-03-15 08:35:54 51°19.284 2°50.852 333.4 13.4 335 16.7
2011-03-15 08:35:59 51°19.301 2°50.839 333.2 13.4 334 16.7
2011-03-15 08:36:04 51°19.318 2°50.826 333 13.4 335 16.5
2011-03-15 08:36:09 51°19.335 2°50.813 332.9 13.5 334 16.4
2011-03-15 08:36:14 51°19.352 2°50.8 332.8 13.5 334 16.3
2011-03-15 08:36:19 51°19.368 2°50.787 332.7 13.6 334 16.1
2011-03-15 08:36:24 51°19.385 2°50.774 332.8 13.5 334 15.8
2011-03-15 08:36:29 51°19.402 2°50.761 332.8 13.6 334 15.8
2011-03-15 08:36:34 51°19.419 2°50.748 332.9 13.5 334 15.6
2011-03-15 08:36:39 51°19.436 2°50.735 332.9 13.5 334 15
2011-03-15 08:36:44 51°19.453 2°50.722 333 13.5 335 15.2
2011-03-15 08:36:49 51°19.47 2°50.709 333.3 13.5 334 15
2011-03-15 08:36:54 51°19.487 2°50.697 333.1 13.4 334 15.1
2011-03-15 08:36:59 51°19.503 2°50.684 333.2 13.5 335 15.1
2011-03-15 08:37:04 51°19.52 2°50.671 333.4 13.5 335 14.8
2011-03-15 08:37:09 51°19.537 2°50.658 333.3 13.5 335 14.6
2011-03-15 08:37:14 51°19.554 2°50.646 333.4 13.4 335 14.5
2011-03-15 08:37:19 51°19.571 2°50.633 333.5 13.5 335 14
2011-03-15 08:37:24 51°19.588 2°50.62 333.4 13.4 334 14
2011-03-15 08:37:29 51°19.605 2°50.607 333.2 13.5 335 13.9
2011-03-15 08:37:34 51°19.622 2°50.594 333.2 13.5 334 13.7
2011-03-15 08:37:39 51°19.639 2°50.581 333.2 13.6 335 14
2011-03-15 08:37:44 51°19.656 2°50.568 333.3 13.5 335 14
2011-03-15 08:37:49 51°19.672 2°50.555 333.4 13.5 334 14.1
2011-03-15 08:37:54 51°19.689 2°50.543 333.4 13.5 334 14.2
2011-03-15 08:37:59 51°19.706 2°50.53 333.4 13.5 334 14.3
2011-03-15 08:38:04 51°19.723 2°50.517 333.2 13.5 334 14.6
2011-03-15 08:38:09 51°19.74 2°50.504 333.2 13.5 334 14.8
2011-03-15 08:38:14 51°19.757 2°50.49 333 13.5 334 14.8
2011-03-15 08:38:18 51°19.77 2°50.48 332.8 13.6 334 15.1
2011-03-15 08:38:24 51°19.79 2°50.464 332.6 13.5 333 15.3
2011-03-15 08:38:29 51°19.807 2°50.45 332.5 13.5 334 15.5
2011-03-15 08:38:34 51°19.824 2°50.437 332.5 13.5 334 15.8
2011-03-15 08:38:39 51°19.841 2°50.424 332.6 13.5 334 15.7
2011-03-15 08:38:44 51°19.857 2°50.411 332.6 13.4 334 15.6
2011-03-15 08:38:49 51°19.874 2°50.397 332.7 13.4 334 15.9
2011-03-15 08:38:54 51°19.89 2°50.384 332.9 13.5 334 16.4
2011-03-15 08:38:59 51°19.907 2°50.371 333.2 13.5 334 16.7
2011-03-15 08:39:04 51°19.923 2°50.357 333.1 13.5 333 16.7
2011-03-15 08:39:09 51°19.94 2°50.343 332.9 13.5 333 16.6
2011-03-15 08:39:14 51°19.957 2°50.33 333 13.5 334 17
2011-03-15 08:39:19 51°19.974 2°50.318 333.4 13.5 335 16.9
2011-03-15 08:39:24 51°19.991 2°50.305 333.5 13.4 334 17
2011-03-15 08:39:29 51°20.008 2°50.293 333.7 13.4 335 17
2011-03-15 08:39:34 51°20.024 2°50.28 333.6 13.4 334 16.9
2011-03-15 08:39:39 51°20.041 2°50.268 333.3 13.3 336 17
2011-03-15 08:39:44 51°20.058 2°50.256 333.8 13.4 336 17.2
2011-03-15 08:39:49 51°20.076 2°50.247 337.1 13.4 343 17.3
2011-03-15 08:39:54 51°20.094 2°50.24 341.9 13.3 346 17.2
2011-03-15 08:39:59 51°20.113 2°50.234 346.3 13.4 350 17.7
2011-03-15 08:40:04 51°20.131 2°50.23 349.5 13.5 351 17.9
2011-03-15 08:40:09 51°20.15 2°50.226 351.8 13.5 353 18
2011-03-15 08:40:14 51°20.169 2°50.223 353.6 13.5 354 18.1
2011-03-15 08:40:19 51°20.188 2°50.221 354.8 13.6 356 18.9
2011-03-15 08:40:24 51°20.207 2°50.22 356.2 13.7 357 19
2011-03-15 08:40:29 51°20.225 2°50.218 357.2 13.6 357 19.1
2011-03-15 08:40:34 51°20.244 2°50.217 357.7 13.6 358 19.6
2011-03-15 08:40:39 51°20.263 2°50.216 358.3 13.7 358 19.7
2011-03-15 08:40:44 51°20.282 2°50.215 358.6 13.7 358 19.6
2011-03-15 08:40:49 51°20.302 2°50.214 358.9 13.7 359 19.7
2011-03-15 08:40:54 51°20.321 2°50.214 359.3 13.7 359 20
2011-03-15 08:40:59 51°20.339 2°50.214 359.6 13.7 -999 20.6
2011-03-15 08:41:04 51°20.358 2°50.213 359.9 13.7 -999 20.8
2011-03-15 08:41:09 51°20.377 2°50.212 359.3 13.6 358 21
2011-03-15 08:41:14 51°20.396 2°50.211 358.8 13.6 359 21.4
2011-03-15 08:41:19 51°20.415 2°50.211 358.6 13.7 358 21.1
2011-03-15 08:41:24 51°20.434 2°50.21 358.3 13.7 358 21.3
2011-03-15 08:41:29 51°20.453 2°50.208 358 13.7 358 21.9
2011-03-15 08:41:34 51°20.472 2°50.208 357.9 13.7 358 21.8
2011-03-15 08:41:39 51°20.491 2°50.207 358.2 13.7 358 22.2
2011-03-15 08:41:44 51°20.51 2°50.206 358.6 13.7 359 22.3
2011-03-15 08:41:49 51°20.529 2°50.205 358.8 13.7 359 22.5
2011-03-15 08:41:54 51°20.548 2°50.205 358.8 13.7 358 22.9
2011-03-15 08:41:58 51°20.563 2°50.204 358.7 13.7 358 23
2011-03-15 08:42:04 51°20.586 2°50.203 358.4 13.8 358 23.2
2011-03-15 08:42:09 51°20.605 2°50.201 357.9 13.8 358 23.4
2011-03-15 08:42:14 51°20.624 2°50.2 357.9 13.7 358 24
2011-03-15 08:42:19 51°20.643 2°50.199 358 13.7 358 23.8
2011-03-15 08:42:24 51°20.662 2°50.198 358.4 13.7 359 24
2011-03-15 08:42:29 51°20.681 2°50.198 358.8 13.7 359 24.1
2011-03-15 08:42:34 51°20.7 2°50.197 358.8 13.7 358 24.1
2011-03-15 08:42:39 51°20.719 2°50.196 358.6 13.7 358 24.2
2011-03-15 08:42:44 51°20.738 2°50.194 358.3 13.7 358 24.6
2011-03-15 08:42:49 51°20.757 2°50.193 358.2 13.7 359 24.9
2011-03-15 08:42:54 51°20.776 2°50.193 358.6 13.7 359 24.8
2011-03-15 08:42:59 51°20.795 2°50.193 359.2 13.7 359 25.2
2011-03-15 08:43:04 51°20.814 2°50.192 359.5 13.7 359 25.3
2011-03-15 08:43:09 51°20.833 2°50.192 359.5 13.7 -999 25.1
2011-03-15 08:43:14 51°20.852 2°50.192 359.7 13.8 359 25.1
2011-03-15 08:43:19 51°20.871 2°50.192 359.6 13.8 359 25.2
2011-03-15 08:43:24 51°20.891 2°50.192 359.5 13.7 -999 25.3
2011-03-15 08:43:29 51°20.91 2°50.192 359.5 13.7 -999 25.3
2011-03-15 08:43:34 51°20.929 2°50.192 359.9 13.7 -999 25.6
2011-03-15 08:43:39 51°20.948 2°50.191 359.8 13.8 359 25.7
2011-03-15 08:43:44 51°20.967 2°50.191 359.7 13.8 359 25.4
2011-03-15 08:43:49 51°20.986 2°50.191 359.4 13.8 -999 25.4
2011-03-15 08:43:54 51°21.006 2°50.191 359.5 13.8 -999 25.8
2011-03-15 08:43:58 51°21.021 2°50.19 359.5 13.8 359 25.9
2011-03-15 08:44:04 51°21.043 2°50.19 359.4 13.8 359 25.6
2011-03-15 08:44:09 51°21.062 2°50.189 359.2 13.8 359 25.5
2011-03-15 08:44:14 51°21.081 2°50.188 358.9 13.8 359 25.5
2011-03-15 08:44:18 51°21.096 2°50.188 358.8 13.8 359 25.6
2011-03-15 08:44:24 51°21.119 2°50.187 358.7 13.8 359 25.7
2011-03-15 08:44:29 51°21.138 2°50.187 358.9 13.9 359 25.9
2011-03-15 08:44:34 51°21.157 2°50.186 359.3 13.8 359 25.8
2011-03-15 08:44:39 51°21.176 2°50.186 359 13.8 358 25.6
2011-03-15 08:44:44 51°21.195 2°50.183 357.6 13.7 356 25.2
2011-03-15 08:44:49 51°21.214 2°50.18 355.5 13.7 353 25.5
2011-03-15 08:44:54 51°21.233 2°50.176 353.2 13.6 352 25.2
2011-03-15 08:44:59 51°21.251 2°50.17 349.7 13.6 348 25.5
2011-03-15 08:45:04 51°21.27 2°50.163 347.1 13.6 346 25.4
2011-03-15 08:45:09 51°21.288 2°50.155 345.4 13.6 345 25.1
2011-03-15 08:45:14 51°21.306 2°50.147 343.1 13.6 343 25.6
2011-03-15 08:45:18 51°21.32 2°50.139 341.2 13.5 341 25.4
2011-03-15 08:45:24 51°21.341 2°50.127 339.8 13.6 340 25.2
2011-03-15 08:45:29 51°21.358 2°50.115 338 13.5 337 25.4
2011-03-15 08:45:34 51°21.375 2°50.103 335.9 13.4 337 25.3
2011-03-15 08:45:39 51°21.392 2°50.091 334.2 13.4 335 24.9
2011-03-15 08:45:44 51°21.409 2°50.077 332.5 13.4 333 24.9
2011-03-15 08:45:49 51°21.426 2°50.063 331.1 13.5 333 25
2011-03-15 08:45:54 51°21.441 2°50.049 329.8 13.4 331 25.2
2011-03-15 08:45:59 51°21.458 2°50.034 328.7 13.3 330 25.1
2011-03-15 08:46:04 51°21.473 2°50.019 327.3 13.4 329 24.8
2011-03-15 08:46:09 51°21.489 2°50.003 326.6 13.4 329 24.8
2011-03-15 08:46:14 51°21.505 2°49.988 326.2 13.4 328 24.4
2011-03-15 08:46:19 51°21.52 2°49.971 325.5 13.4 326 24.6
2011-03-15 08:46:24 51°21.536 2°49.955 324 13.3 326 24.4
2011-03-15 08:46:29 51°21.551 2°49.938 323 13.3 325 24.2
2011-03-15 08:46:34 51°21.567 2°49.921 322.4 13.3 325 23.8
2011-03-15 08:46:38 51°21.578 2°49.907 321.5 13.2 324 23.9
2011-03-15 08:46:44 51°21.596 2°49.886 321 13.3 324 24.2
2011-03-15 08:46:49 51°21.611 2°49.869 321.5 13.3 324 24.1
2011-03-15 08:46:54 51°21.626 2°49.852 321.6 13.4 325 24
2011-03-15 08:46:59 51°21.641 2°49.835 321.8 13.3 325 24
2011-03-15 08:47:04 51°21.657 2°49.818 322.3 13.4 325 24.4
2011-03-15 08:47:09 51°21.672 2°49.802 323.1 13.3 326 24.3
2011-03-15 08:47:14 51°21.687 2°49.785 322.9 13.4 326 24.4
2011-03-15 08:47:19 51°21.703 2°49.768 322.7 13.4 325 24.8
2011-03-15 08:47:24 51°21.718 2°49.751 322.7 13.4 325 24.8
2011-03-15 08:47:29 51°21.733 2°49.734 322.3 13.4 324 25.1
2011-03-15 08:47:34 51°21.749 2°49.717 322.4 13.4 325 24.8
2011-03-15 08:47:39 51°21.764 2°49.7 322.5 13.3 325 24.9
2011-03-15 08:47:44 51°21.779 2°49.683 322 13.3 323 25.1
2011-03-15 08:47:49 51°21.794 2°49.665 320.9 13.3 322 25.3
2011-03-15 08:47:54 51°21.808 2°49.647 319.5 13.3 322 25.4
2011-03-15 08:47:59 51°21.822 2°49.628 318.8 13.3 321 25
2011-03-15 08:48:04 51°21.837 2°49.609 317.8 13.3 320 25.1
2011-03-15 08:48:09 51°21.85 2°49.589 316.5 13.2 318 25.2
2011-03-15 08:48:14 51°21.864 2°49.57 315.4 13.2 318 25.6
2011-03-15 08:48:19 51°21.877 2°49.549 314.3 13.3 317 25.7
2011-03-15 08:48:24 51°21.891 2°49.529 314.1 13.3 317 25.5
2011-03-15 08:48:29 51°21.904 2°49.508 313 13.2 316 25.6
2011-03-15 08:48:34 51°21.917 2°49.488 312.7 13.2 316 25.6
2011-03-15 08:48:38 51°21.927 2°49.471 312.4 13.3 315 25.6
2011-03-15 08:48:44 51°21.943 2°49.447 312.7 13.3 316 25.7
2011-03-15 08:48:49 51°21.956 2°49.426 312.9 13.2 315 25.5
2011-03-15 08:48:54 51°21.969 2°49.406 312.5 13.2 316 25.6
2011-03-15 08:48:58 51°21.98 2°49.389 312.4 13.2 315 25.5
2011-03-15 08:49:04 51°21.995 2°49.364 312.4 13.3 316 25.6
2011-03-15 08:49:09 51°22.009 2°49.344 312.5 13.2 316 25.6
2011-03-15 08:49:14 51°22.022 2°49.323 312.8 13.2 316 25.4
2011-03-15 08:49:19 51°22.035 2°49.303 312.7 13.2 315 25.6
2011-03-15 08:49:24 51°22.048 2°49.282 312.6 13.2 315 25.2
2011-03-15 08:49:29 51°22.061 2°49.261 312.2 13.2 315 25.3
2011-03-15 08:49:34 51°22.074 2°49.24 312.4 13.2 315 25.4
2011-03-15 08:49:39 51°22.086 2°49.219 311.9 13.2 314 25.8
2011-03-15 08:49:44 51°22.099 2°49.198 312.2 13.3 315 25.9
2011-03-15 08:49:49 51°22.112 2°49.177 312.5 13.3 316 25.7
2011-03-15 08:49:54 51°22.126 2°49.157 313.2 13.3 315 25.4
2011-03-15 08:49:58 51°22.136 2°49.14 313 13.4 316 25.2
2011-03-15 08:50:04 51°22.152 2°49.116 313.4 13.3 315 25.5
2011-03-15 08:50:09 51°22.165 2°49.095 312.9 13.2 316 25.4
2011-03-15 08:50:14 51°22.178 2°49.073 311.9 13.2 312 25.7
2011-03-15 08:50:19 51°22.19 2°49.052 310.5 13.2 313 25.3
2011-03-15 08:50:24 51°22.202 2°49.03 310 13.1 310 25.2
2011-03-15 08:50:29 51°22.214 2°49.008 308.2 13.2 311 25.6
2011-03-15 08:50:34 51°22.226 2°48.986 308.3 13.2 311 25.6
2011-03-15 08:50:39 51°22.237 2°48.963 308.2 13.2 310 25.5
2011-03-15 08:50:44 51°22.25 2°48.941 307.9 13.3 310 25.2
2011-03-15 08:50:49 51°22.261 2°48.918 307.5 13.2 309 25.2
2011-03-15 08:50:54 51°22.273 2°48.896 307.4 13.3 311 24.7
2011-03-15 08:50:59 51°22.285 2°48.873 307.9 13.3 309 24.1
2011-03-15 08:51:04 51°22.297 2°48.851 307.8 13.1 312 23.5
2011-03-15 08:51:09 51°22.308 2°48.828 307.2 13.1 307 23.8
2011-03-15 08:51:14 51°22.318 2°48.805 304.9 13 305 23.8
2011-03-15 08:51:19 51°22.328 2°48.781 302.7 13 303 23.9
2011-03-15 08:51:24 51°22.338 2°48.756 300.8 13 303 22.9
2011-03-15 08:51:29 51°22.347 2°48.732 299.8 12.9 301 22.6
2011-03-15 08:51:34 51°22.356 2°48.707 298.4 12.9 300 22.2
2011-03-15 08:51:39 51°22.365 2°48.683 297.9 13.1 300 22
2011-03-15 08:51:44 51°22.374 2°48.657 297.7 13 300 21.9
2011-03-15 08:51:49 51°22.383 2°48.632 297.5 13 300 21.7
2011-03-15 08:51:54 51°22.392 2°48.607 297.6 13.1 301 21.1
2011-03-15 08:51:58 51°22.4 2°48.588 297.7 13 300 21.4
2011-03-15 08:52:04 51°22.411 2°48.558 297.7 12.9 301 20.8
2011-03-15 08:52:09 51°22.42 2°48.533 298.5 13 300 20.5
2011-03-15 08:52:14 51°22.429 2°48.509 298.3 12.9 301 19.9
2011-03-15 08:52:18 51°22.436 2°48.49 298.1 12.7 301 19.4
2011-03-15 08:52:24 51°22.447 2°48.461 297.8 12.7 301 19.2
2011-03-15 08:52:29 51°22.456 2°48.436 297.3 12.7 301 18.6
2011-03-15 08:52:34 51°22.465 2°48.412 297.7 12.7 301 18.6
2011-03-15 08:52:39 51°22.474 2°48.387 297.7 12.8 300 17.2
2011-03-15 08:52:44 51°22.483 2°48.363 297.1 12.8 301 16.5
2011-03-15 08:52:49 51°22.492 2°48.339 298 12.8 301 15.3
2011-03-15 08:52:54 51°22.502 2°48.315 298.6 12.7 302 15.9
2011-03-15 08:52:59 51°22.511 2°48.291 299.1 12.8 302 16.5
2011-03-15 08:53:04 51°22.521 2°48.267 299.1 13 302 16.7
2011-03-15 08:53:09 51°22.531 2°48.243 299.9 12.9 303 16.2
2011-03-15 08:53:14 51°22.54 2°48.218 299.6 12.8 302 15.7
2011-03-15 08:53:18 51°22.548 2°48.199 300 12.8 303 14.6
2011-03-15 08:53:24 51°22.559 2°48.171 299.9 12.8 303 15.4
2011-03-15 08:53:29 51°22.569 2°48.147 299.9 12.7 303 16.3
2011-03-15 08:53:34 51°22.578 2°48.123 299.3 12.8 303 17.4
2011-03-15 08:53:39 51°22.588 2°48.099 299.4 12.7 302 17.5
2011-03-15 08:53:44 51°22.597 2°48.075 298.9 12.8 302 18.5
2011-03-15 08:53:49 51°22.606 2°48.051 297.9 12.9 300 19.1
2011-03-15 08:53:54 51°22.615 2°48.026 297.7 12.8 302 18.9
2011-03-15 08:53:59 51°22.624 2°48.002 298.1 12.8 301 18.8
2011-03-15 08:54:04 51°22.634 2°47.978 298.4 12.8 301 19.2
2011-03-15 08:54:09 51°22.643 2°47.954 298.9 12.7 302 18.7
2011-03-15 08:54:14 51°22.653 2°47.93 298.8 12.7 302 18.9
2011-03-15 08:54:19 51°22.662 2°47.905 298.1 12.8 301 19.5
2011-03-15 08:54:24 51°22.671 2°47.881 298.4 12.8 302 19.7
2011-03-15 08:54:29 51°22.68 2°47.857 298.5 12.7 301 20.2
2011-03-15 08:54:34 51°22.689 2°47.833 298.4 12.8 302 20.1
2011-03-15 08:54:39 51°22.698 2°47.808 297.9 12.8 300 19.6
2011-03-15 08:54:44 51°22.707 2°47.784 298.3 12.8 302 20.4
2011-03-15 08:54:49 51°22.716 2°47.759 297.7 12.7 301 20.8
2011-03-15 08:54:54 51°22.725 2°47.736 298.1 12.7 301 20.5
2011-03-15 08:54:59 51°22.734 2°47.711 298.7 12.7 301 20.2
2011-03-15 08:55:04 51°22.744 2°47.687 298.6 12.7 300 19.9
2011-03-15 08:55:09 51°22.753 2°47.662 297.9 12.8 302 20.8
2011-03-15 08:55:14 51°22.763 2°47.638 298 12.8 301 21.3
2011-03-15 08:55:19 51°22.772 2°47.613 297.8 12.8 301 21.1
2011-03-15 08:55:24 51°22.781 2°47.589 297.6 12.8 301 21.2
2011-03-15 08:55:29 51°22.789 2°47.564 296.7 12.8 299 21.4
2011-03-15 08:55:34 51°22.797 2°47.539 295.6 12.8 297 22
2011-03-15 08:55:39 51°22.806 2°47.514 294.8 12.7 297 21.9
2011-03-15 08:55:44 51°22.813 2°47.489 294.1 12.6 296 21.5
2011-03-15 08:55:49 51°22.821 2°47.464 293.5 12.7 296 21.6
2011-03-15 08:55:54 51°22.829 2°47.438 293.3 12.7 296 20.9
2011-03-15 08:55:59 51°22.837 2°47.413 293.4 12.7 298 20.3
2011-03-15 08:56:04 51°22.845 2°47.388 293.9 12.7 297 18.7
2011-03-15 08:56:09 51°22.853 2°47.364 294.1 12.6 298 18.9
2011-03-15 08:56:14 51°22.862 2°47.339 294 12.7 298 20.7
2011-03-15 08:56:18 51°22.868 2°47.318 294.2 12.7 299 21.5
2011-03-15 08:56:24 51°22.878 2°47.288 294.3 12.7 297 22.7
2011-03-15 08:56:29 51°22.886 2°47.263 294 12.8 296 22.9
2011-03-15 08:56:34 51°22.894 2°47.238 293.4 12.8 296 23.2
2011-03-15 08:56:39 51°22.901 2°47.212 293 12.7 295 23
2011-03-15 08:56:44 51°22.909 2°47.187 292.1 12.7 297 23.5
2011-03-15 08:56:49 51°22.917 2°47.162 292.8 12.7 296 23.4
2011-03-15 08:56:54 51°22.925 2°47.137 293.2 12.6 297 21.7
2011-03-15 08:56:59 51°22.932 2°47.112 293.1 12.7 296 18.8
2011-03-15 08:57:04 51°22.941 2°47.087 293.7 12.7 298 19.3
2011-03-15 08:57:09 51°22.949 2°47.062 293.6 12.7 297 21.3
2011-03-15 08:57:14 51°22.957 2°47.037 293.9 12.7 298 22.4
2011-03-15 08:57:19 51°22.965 2°47.012 294 12.7 297 23.5
2011-03-15 08:57:24 51°22.973 2°46.986 293.8 12.8 297 23.8
2011-03-15 08:57:29 51°22.981 2°46.961 293.8 12.8 297 24.1
2011-03-15 08:57:34 51°22.989 2°46.936 293.6 12.8 297 23.7
2011-03-15 08:57:38 51°22.995 2°46.916 293.3 12.8 297 23.9
2011-03-15 08:57:44 51°23.005 2°46.886 293.6 12.8 297 23.1
2011-03-15 08:57:49 51°23.013 2°46.86 293.4 12.8 297 21
2011-03-15 08:57:54 51°23.021 2°46.835 293.9 12.8 298 20.5
2011-03-15 08:57:58 51°23.028 2°46.815 295.2 12.7 298 22.3
2011-03-15 08:58:04 51°23.038 2°46.786 295.5 12.7 300 24.2
2011-03-15 08:58:09 51°23.047 2°46.762 296 12.7 299 24.6
2011-03-15 08:58:14 51°23.056 2°46.737 296.1 12.7 300 25.2
2011-03-15 08:58:19 51°23.064 2°46.713 296.1 12.7 300 25.6
2011-03-15 08:58:24 51°23.074 2°46.689 296.9 12.8 301 25.6
2011-03-15 08:58:29 51°23.082 2°46.664 296.8 12.8 300 26
2011-03-15 08:58:34 51°23.092 2°46.64 297.6 12.8 302 26.4
2011-03-15 08:58:39 51°23.1 2°46.616 297.7 12.7 300 26.6
2011-03-15 08:58:44 51°23.11 2°46.592 297.3 12.8 302 26.5
2011-03-15 08:58:49 51°23.118 2°46.567 297.4 12.8 299 26.4
2011-03-15 08:58:54 51°23.127 2°46.542 296.9 12.9 300 26.5
2011-03-15 08:58:58 51°23.135 2°46.523 297.6 12.8 301 25.6
2011-03-15 08:59:04 51°23.145 2°46.493 297.1 12.8 300 21.5
2011-03-15 08:59:09 51°23.154 2°46.468 296.9 12.9 301 22.9
2011-03-15 08:59:14 51°23.163 2°46.443 296.5 12.9 299 24.8
2011-03-15 08:59:19 51°23.172 2°46.419 297.1 12.8 301 26
2011-03-15 08:59:24 51°23.181 2°46.394 297 12.9 301 27.2
2011-03-15 08:59:29 51°23.19 2°46.37 297.7 12.8 300 27.6
2011-03-15 08:59:34 51°23.199 2°46.345 297.6 12.8 301 25.1
2011-03-15 08:59:39 51°23.208 2°46.321 297.7 12.8 301 25.4
2011-03-15 08:59:44 51°23.217 2°46.296 297.5 12.8 301 26.2
2011-03-15 08:59:49 51°23.226 2°46.272 296.9 12.8 300 26.8
2011-03-15 08:59:54 51°23.235 2°46.247 296.4 12.9 299 27.2
2011-03-15 08:59:59 51°23.244 2°46.222 296.4 13 300 27.3
2011-03-15 09:00:04 51°23.253 2°46.197 297.3 12.9 300 27.8
2011-03-15 09:00:09 51°23.262 2°46.173 297.3 12.9 300 27.4
2011-03-15 09:00:14 51°23.271 2°46.148 297 12.9 300 26.7
2011-03-15 09:00:19 51°23.28 2°46.123 297.4 12.8 300 26.2
2011-03-15 09:00:24 51°23.289 2°46.099 297.2 12.8 301 25.3
2011-03-15 09:00:29 51°23.298 2°46.074 297.2 12.8 300 26.1
2011-03-15 09:00:34 51°23.307 2°46.05 296.8 12.9 300 26
2011-03-15 09:00:39 51°23.316 2°46.025 296.8 12.9 301 26.1
2011-03-15 09:00:44 51°23.325 2°46.001 296.9 12.9 301 26.9
2011-03-15 09:00:49 51°23.334 2°45.976 297.2 13 301 28
2011-03-15 09:00:54 51°23.343 2°45.952 297.7 13 301 27.6
2011-03-15 09:00:59 51°23.353 2°45.927 297.4 12.9 301 28.3
2011-03-15 09:01:04 51°23.362 2°45.902 297.7 13 301 28.4
2011-03-15 09:01:09 51°23.371 2°45.877 297.6 13 300 28.8
2011-03-15 09:01:14 51°23.38 2°45.852 297 13 300 29.3
2011-03-15 09:01:19 51°23.389 2°45.828 297 13 301 29.7
2011-03-15 09:01:24 51°23.398 2°45.803 297.1 12.9 299 29.7
2011-03-15 09:01:29 51°23.408 2°45.778 297.1 12.8 301 29.6
2011-03-15 09:01:34 51°23.416 2°45.753 296.8 12.9 299 28.6
2011-03-15 09:01:39 51°23.425 2°45.728 296.2 13 300 28.4
2011-03-15 09:01:44 51°23.434 2°45.704 296.7 12.9 299 29.2
2011-03-15 09:01:49 51°23.443 2°45.679 297.1 12.9 302 29.2
2011-03-15 09:01:54 51°23.452 2°45.654 297.5 12.9 299 29.2
2011-03-15 09:01:59 51°23.461 2°45.629 296.9 12.9 302 28.4
2011-03-15 09:02:04 51°23.47 2°45.604 297.8 12.9 301 28.5
2011-03-15 09:02:09 51°23.479 2°45.58 298 13 301 29.4
2011-03-15 09:02:14 51°23.488 2°45.555 297.6 12.9 301 29.4
2011-03-15 09:02:19 51°23.497 2°45.53 297.2 12.9 299 29.5
2011-03-15 09:02:24 51°23.506 2°45.505 296.9 12.9 300 29.2
2011-03-15 09:02:29 51°23.515 2°45.48 297.1 12.9 299 28.8
2011-03-15 09:02:34 51°23.524 2°45.455 296.7 12.9 299 28.7
2011-03-15 09:02:38 51°23.531 2°45.435 296.7 12.9 300 29.2
2011-03-15 09:02:44 51°23.542 2°45.405 297 13 300 29.6
2011-03-15 09:02:49 51°23.551 2°45.38 297.2 13 301 29.1
2011-03-15 09:02:54 51°23.56 2°45.356 298.1 13.1 301 29.1
2011-03-15 09:02:59 51°23.57 2°45.332 299.1 13.1 303 29.3
2011-03-15 09:03:04 51°23.58 2°45.307 300 13 303 29.4
2011-03-15 09:03:09 51°23.591 2°45.284 300.9 12.9 305 29.1
2011-03-15 09:03:14 51°23.601 2°45.26 301.7 12.9 304 29
2011-03-15 09:03:19 51°23.61 2°45.236 301.2 13 304 29.4
2011-03-15 09:03:24 51°23.621 2°45.212 301.3 13.1 304 29.1
2011-03-15 09:03:29 51°23.631 2°45.188 301.4 13.1 304 27.9
2011-03-15 09:03:34 51°23.641 2°45.164 300.6 13.1 303 28.6
2011-03-15 09:03:39 51°23.651 2°45.14 300.8 13.2 304 29.3
2011-03-15 09:03:44 51°23.661 2°45.116 301 13 305 29.5
2011-03-15 09:03:49 51°23.671 2°45.092 301.3 13 303 29.4
2011-03-15 09:03:54 51°23.681 2°45.068 301.2 13 303 29.1
2011-03-15 09:03:59 51°23.691 2°45.044 300.3 13 303 29.5
2011-03-15 09:04:04 51°23.701 2°45.02 300.3 12.9 303 29.5
2011-03-15 09:04:09 51°23.711 2°44.996 300.4 13 304 29.4
2011-03-15 09:04:14 51°23.721 2°44.971 300.7 13 303 29.4
2011-03-15 09:04:19 51°23.731 2°44.947 300.7 13.1 304 27.5
2011-03-15 09:04:24 51°23.74 2°44.922 300 13 303 27.3
2011-03-15 09:04:29 51°23.75 2°44.899 300.2 13 304 28.7
2011-03-15 09:04:34 51°23.76 2°44.875 301 13 304 29.1
2011-03-15 09:04:38 51°23.768 2°44.856 300.6 12.9 303 28.7
2011-03-15 09:04:44 51°23.78 2°44.827 300.2 13 304 28.4
2011-03-15 09:04:49 51°23.79 2°44.802 300.1 13 302 28.2
2011-03-15 09:04:54 51°23.799 2°44.778 300.1 13 303 28.4
2011-03-15 09:04:58 51°23.808 2°44.759 300.4 13 303 28.7
2011-03-15 09:05:04 51°23.819 2°44.729 300.3 13 302 28.5
2011-03-15 09:05:09 51°23.829 2°44.705 299.9 13 303 28.4
2011-03-15 09:05:14 51°23.838 2°44.681 300.5 13 302 28.3
2011-03-15 09:05:19 51°23.848 2°44.656 299.4 13 300 28.8
2011-03-15 09:05:24 51°23.857 2°44.631 298.1 12.9 299 28.4
2011-03-15 09:05:29 51°23.865 2°44.606 297 12.8 299 28.4
2011-03-15 09:05:34 51°23.873 2°44.581 295.8 12.8 298 29.1
2011-03-15 09:05:39 51°23.882 2°44.555 295.4 12.9 298 29.2
2011-03-15 09:05:44 51°23.89 2°44.53 294.9 12.9 296 29.7
2011-03-15 09:05:49 51°23.898 2°44.505 294.6 12.9 297 30
2011-03-15 09:05:54 51°23.906 2°44.48 295 12.7 297 28.5
2011-03-15 09:05:58 51°23.913 2°44.459 294.9 12.9 298 27.8
2011-03-15 09:06:04 51°23.923 2°44.429 295.8 12.9 299 27.7
2011-03-15 09:06:09 51°23.931 2°44.404 296.1 12.9 298 27.3
2011-03-15 09:06:14 51°23.94 2°44.379 296.2 12.8 299 27.9
2011-03-15 09:06:19 51°23.948 2°44.354 296 12.8 298 28.5
2011-03-15 09:06:24 51°23.957 2°44.328 295.7 12.8 299 27.1
2011-03-15 09:06:29 51°23.965 2°44.303 296.1 12.8 298 27.2
2011-03-15 09:06:34 51°23.974 2°44.278 296.2 12.9 299 28.1
2011-03-15 09:06:39 51°23.982 2°44.253 296.3 12.8 299 28.6
2011-03-15 09:06:44 51°23.991 2°44.228 296.1 12.9 298 28.2
2011-03-15 09:06:49 51°23.999 2°44.203 295.5 12.8 298 28.1
2011-03-15 09:06:54 51°24.008 2°44.178 295.8 12.7 299 26.6
2011-03-15 09:06:59 51°24.016 2°44.153 295.6 12.7 299 25.2
2011-03-15 09:07:04 51°24.024 2°44.129 295.6 12.7 299 24.4
2011-03-15 09:07:09 51°24.032 2°44.103 295.3 12.8 297 25.2
2011-03-15 09:07:14 51°24.041 2°44.078 294.9 12.9 298 26.5
2011-03-15 09:07:19 51°24.05 2°44.054 296.2 12.9 302 26.9
2011-03-15 09:07:24 51°24.06 2°44.03 299.5 13 305 27.7
2011-03-15 09:07:29 51°24.071 2°44.007 302.5 13 307 28.1
2011-03-15 09:07:34 51°24.083 2°43.985 304.9 13 309 27.9
2011-03-15 09:07:39 51°24.094 2°43.963 306.7 13 309 28.7
2011-03-15 09:07:44 51°24.106 2°43.942 308.4 13 312 28.5
2011-03-15 09:07:49 51°24.118 2°43.92 309 13.1 312 28.7
2011-03-15 09:07:54 51°24.131 2°43.899 309.6 13.1 314 29.4
2011-03-15 09:07:59 51°24.143 2°43.878 310.7 13.1 313 29
2011-03-15 09:08:04 51°24.157 2°43.857 312.5 13.2 316 29.4
2011-03-15 09:08:09 51°24.17 2°43.838 314.4 13.2 318 29.4
2011-03-15 09:08:14 51°24.185 2°43.82 316.8 13.2 320 29.3
2011-03-15 09:08:19 51°24.199 2°43.801 317.8 13.2 321 27.7
2011-03-15 09:08:24 51°24.213 2°43.783 319.4 13.2 324 24.4
2011-03-15 09:08:29 51°24.229 2°43.767 322.5 13.3 328 24.8
2011-03-15 09:08:34 51°24.245 2°43.753 325.7 13.3 331 23.7
2011-03-15 09:08:39 51°24.262 2°43.74 329.9 13.3 336 23.3
2011-03-15 09:08:44 51°24.279 2°43.729 333.6 13.3 337 25.3
2011-03-15 09:08:49 51°24.297 2°43.718 336.1 13.4 339 27.2
2011-03-15 09:08:54 51°24.314 2°43.709 338.4 12.9 341 28.1
2011-03-15 09:08:59 51°24.33 2°43.701 339.8 11.7 343 28.4
2011-03-15 09:09:04 51°24.344 2°43.695 341.9 10.8 345 28.4
2011-03-15 09:09:09 51°24.358 2°43.69 344 10 348 28.5
2011-03-15 09:09:14 51°24.37 2°43.687 346.6 9.4 350 28.4
2011-03-15 09:09:19 51°24.382 2°43.684 348.8 8.6 353 28.4
2011-03-15 09:09:24 51°24.393 2°43.683 351.4 8.1 355 27.5
2011-03-15 09:09:29 51°24.404 2°43.682 353.3 7.6 357 27.8
2011-03-15 09:09:34 51°24.414 2°43.681 354.8 7.3 358 26.8
2011-03-15 09:09:39 51°24.423 2°43.68 356.1 6.9 359 26.9
2011-03-15 09:09:44 51°24.432 2°43.681 357.2 6.5 1 26.4
2011-03-15 09:09:49 51°24.441 2°43.681 358.1 6.2 1 25.6
2011-03-15 09:09:54 51°24.449 2°43.681 358.5 6 2 25.5
2011-03-15 09:09:59 51°24.457 2°43.682 358.8 5.7 2 24.5
2011-03-15 09:10:04 51°24.465 2°43.682 359 5.3 2 24.1
2011-03-15 09:10:09 51°24.472 2°43.683 359.5 5.1 4 23.1
2011-03-15 09:10:14 51°24.479 2°43.684 0.3 4.9 4 22.6
2011-03-15 09:10:18 51°24.484 2°43.684 0.9 4.8 5 22.2
2011-03-15 09:10:24 51°24.492 2°43.685 2 4.6 5 23.2
2011-03-15 09:10:29 51°24.498 2°43.687 3.1 4.3 7 25
2011-03-15 09:10:34 51°24.504 2°43.688 4.1 4.2 7 25
2011-03-15 09:10:39 51°24.509 2°43.689 5.2 4 8 25.5
2011-03-15 09:10:44 51°24.514 2°43.691 5.9 3.9 10 26.4
2011-03-15 09:10:49 51°24.52 2°43.692 6.5 3.7 9 26.3
2011-03-15 09:10:54 51°24.525 2°43.693 7.1 3.6 10 26.7
2011-03-15 09:10:59 51°24.53 2°43.694 7.6 3.6 9 26.5
2011-03-15 09:11:04 51°24.534 2°43.696 8.1 3.5 11 27
2011-03-15 09:11:09 51°24.539 2°43.697 8.7 3.5 8 27.2
2011-03-15 09:11:14 51°24.544 2°43.699 9.2 3.5 12 27.1
2011-03-15 09:11:19 51°24.549 2°43.7 9.2 3.3 8 27.3
2011-03-15 09:11:24 51°24.553 2°43.701 8.9 3.3 10 27.1
2011-03-15 09:11:29 51°24.558 2°43.702 8.8 3.3 9 26.6
2011-03-15 09:11:34 51°24.562 2°43.704 8.6 3.3 11 26.9
2011-03-15 09:11:39 51°24.567 2°43.705 8.5 3.3 9 26.5
2011-03-15 09:11:44 51°24.571 2°43.706 8.6 3.2 10 26.4
2011-03-15 09:11:49 51°24.575 2°43.707 8.7 3.2 11 26.3
2011-03-15 09:11:54 51°24.58 2°43.709 8.8 3.2 11 25.9
2011-03-15 09:11:59 51°24.584 2°43.71 9.3 3.1 12 25.7
2011-03-15 09:12:04 51°24.588 2°43.711 9.1 3 11 25.5
2011-03-15 09:12:09 51°24.592 2°43.712 9.1 2.9 11 24.8
2011-03-15 09:12:14 51°24.597 2°43.714 9.4 3 11 24.6
2011-03-15 09:12:18 51°24.6 2°43.714 9.5 2.8 9 24.6
2011-03-15 09:12:24 51°24.604 2°43.716 9.5 2.7 11 24.3
2011-03-15 09:12:29 51°24.608 2°43.717 9.5 2.7 9 23.9
2011-03-15 09:12:34 51°24.611 2°43.718 9.3 2.7 11 23.4
2011-03-15 09:12:38 51°24.614 2°43.719 8.9 2.6 9 23.1
2011-03-15 09:12:44 51°24.619 2°43.72 8.1 2.6 11 23.7
2011-03-15 09:12:49 51°24.622 2°43.721 7 2.6 9 24.5
2011-03-15 09:12:54 51°24.626 2°43.722 5.9 2.7 10 25.4
2011-03-15 09:12:59 51°24.629 2°43.723 4.4 2.5 6 26
2011-03-15 09:13:04 51°24.633 2°43.724 3.3 2.6 9 26.4
2011-03-15 09:13:09 51°24.637 2°43.724 2 2.8 4 26.7
2011-03-15 09:13:14 51°24.641 2°43.724 359 2.7 3 26.7
2011-03-15 09:13:19 51°24.644 2°43.724 356.5 2.7 359 26.8
2011-03-15 09:13:24 51°24.648 2°43.724 354.3 2.7 1 26.9
2011-03-15 09:13:29 51°24.652 2°43.724 352.4 2.6 -999 26.3
2011-03-15 09:13:34 51°24.655 2°43.724 349.9 2.3 358 27.2
2011-03-15 09:13:39 51°24.658 2°43.724 348.5 2.2 -999 26.8
2011-03-15 09:13:44 51°24.661 2°43.724 347.9 1.8 357 26.7
2011-03-15 09:13:49 51°24.663 2°43.724 347.8 1.4 359 26
2011-03-15 09:13:54 51°24.665 2°43.724 348.6 1.3 359 26
2011-03-15 09:13:59 51°24.666 2°43.723 349 1.3 -999 25.8
2011-03-15 09:14:04 51°24.668 2°43.724 349.4 1.3 1 25.6
2011-03-15 09:14:09 51°24.67 2°43.723 349.2 1.3 357 25.2
2011-03-15 09:14:14 51°24.672 2°43.723 349.4 1.3 359 23.1
2011-03-15 09:14:19 51°24.674 2°43.723 349.6 1.3 358 22.9
2011-03-15 09:14:24 51°24.675 2°43.723 350.1 1.3 -999 23.5
2011-03-15 09:14:29 51°24.677 2°43.723 350.8 1.3 -999 23.4
2011-03-15 09:14:34 51°24.678 2°43.723 351.4 1.2 -999 24.9
2011-03-15 09:14:39 51°24.68 2°43.723 352.1 1.2 1 25.3
2011-03-15 09:14:44 51°24.682 2°43.724 352.8 1.2 1 25.4
2011-03-15 09:14:49 51°24.684 2°43.724 353.6 1.2 4 25.8
2011-03-15 09:14:54 51°24.685 2°43.724 354.3 1.2 -999 25.2
2011-03-15 09:14:59 51°24.687 2°43.724 355 1.2 8 25.2
2011-03-15 09:15:04 51°24.688 2°43.724 355.7 1.1 1 26
2011-03-15 09:15:09 51°24.69 2°43.724 356.3 1.1 10 25.7
2011-03-15 09:15:14 51°24.691 2°43.725 357.2 1.1 6 25.4
2011-03-15 09:15:18 51°24.693 2°43.725 358.3 1.1 4 25.1
2011-03-15 09:15:24 51°24.695 2°43.725 359.1 1.1 2 25.4
2011-03-15 09:15:29 51°24.696 2°43.725 0.1 1 4 25.6
2011-03-15 09:15:34 51°24.698 2°43.725 0.9 1 359 25.7
2011-03-15 09:15:38 51°24.699 2°43.725 1.5 1.1 4 25.6
2011-03-15 09:15:44 51°24.701 2°43.725 2.3 1.1 3 25.3
2011-03-15 09:15:49 51°24.702 2°43.725 3.1 1.1 5 25.4
2011-03-15 09:15:54 51°24.703 2°43.725 3.6 1.1 -999 25.2
2011-03-15 09:15:59 51°24.705 2°43.726 4.4 1 4 25
2011-03-15 09:16:04 51°24.706 2°43.726 5.2 1 6 25.4
2011-03-15 09:16:09 51°24.708 2°43.726 5.5 1 357 25.2
2011-03-15 09:16:14 51°24.709 2°43.727 6 1 10 25
2011-03-15 09:16:19 51°24.71 2°43.727 6.4 1 356 24.6
2011-03-15 09:16:24 51°24.712 2°43.727 6.9 0.9 7 24.7
2011-03-15 09:16:29 51°24.713 2°43.727 7 0.9 355 25.1
2011-03-15 09:16:34 51°24.714 2°43.727 7.2 0.9 3 24.9
2011-03-15 09:16:38 51°24.715 2°43.727 7.3 0.9 2 24.5
2011-03-15 09:16:44 51°24.717 2°43.727 7.4 0.8 359 24.6
2011-03-15 09:16:49 51°24.717 2°43.727 7.1 0.6 -999 24.9
2011-03-15 09:16:54 51°24.718 2°43.727 7.4 0.4 336 24.9
2011-03-15 09:16:59 51°24.718 2°43.726 6.9 0.2 336 25
2011-03-15 09:17:04 51°24.718 2°43.726 6.7 0.1 266 24.7
2011-03-15 09:17:09 51°24.718 2°43.726 6 0.2 220 25.1
2011-03-15 09:17:14 51°24.717 2°43.725 5.2 0.4 210 25.2
2011-03-15 09:17:19 51°24.717 2°43.725 4.1 0.6 200 24.7
2011-03-15 09:17:24 51°24.716 2°43.725 2.7 0.7 182 24.5
2011-03-15 09:17:29 51°24.714 2°43.725 0.4 1.1 185 25.1
2011-03-15 09:17:34 51°24.713 2°43.725 357.9 1.2 174 25.1
2011-03-15 09:17:39 51°24.71 2°43.726 355.4 1.5 176 24.6
2011-03-15 09:17:44 51°24.708 2°43.727 352.7 1.6 163 24.9
2011-03-15 09:17:49 51°24.706 2°43.728 350.8 1.8 169 25.5
2011-03-15 09:17:54 51°24.704 2°43.729 348.5 1.8 159 25.1
2011-03-15 09:17:58 51°24.702 2°43.731 345.9 2 163 25.1
2011-03-15 09:18:04 51°24.699 2°43.733 344.1 2.1 151 25.4
2011-03-15 09:18:09 51°24.696 2°43.735 342.7 2.1 157 -999
2011-03-15 09:18:14 51°24.693 2°43.737 341 2.2 148 25.8
2011-03-15 09:18:19 51°24.691 2°43.74 339.2 2.3 152 25.1
2011-03-15 09:18:24 51°24.687 2°43.742 338 2.4 146 24.3
2011-03-15 09:18:29 51°24.685 2°43.745 336.4 2.3 147 24.8
2011-03-15 09:18:34 51°24.682 2°43.748 335.5 2.4 148 24.4
2011-03-15 09:18:39 51°24.679 2°43.751 333.4 2.3 143 -999
2011-03-15 09:18:44 51°24.677 2°43.754 332.3 2.2 139 24.2
2011-03-15 09:18:49 51°24.675 2°43.757 330.1 2.1 139 24.7
2011-03-15 09:18:54 51°24.673 2°43.76 328.2 2 137 24.4
2011-03-15 09:18:59 51°24.671 2°43.764 326.9 1.9 130 24.2
2011-03-15 09:19:04 51°24.67 2°43.767 325.2 1.7 127 23.9
2011-03-15 09:19:09 51°24.668 2°43.77 323.6 1.7 133 24.2
2011-03-15 09:19:14 51°24.667 2°43.773 322.8 1.7 130 24
2011-03-15 09:19:19 51°24.666 2°43.776 321.7 1.6 125 24
2011-03-15 09:19:24 51°24.665 2°43.779 320.9 1.5 118 23.4
2011-03-15 09:19:29 51°24.664 2°43.781 319.5 1.3 127 23.8
2011-03-15 09:19:34 51°24.663 2°43.784 318.3 1.3 113 23.1
2011-03-15 09:19:39 51°24.663 2°43.786 317 0.8 114 23.2
2011-03-15 09:19:44 51°24.663 2°43.787 314.5 0.7 70 23.3
2011-03-15 09:19:49 51°24.663 2°43.787 310.9 0.5 9 23
2011-03-15 09:19:54 51°24.664 2°43.786 305.2 0.7 339 23.2
2011-03-15 09:19:59 51°24.666 2°43.785 299.6 1.1 321 23.5
2011-03-15 09:20:04 51°24.667 2°43.782 295.1 1.6 312 23.3
2011-03-15 09:20:09 51°24.669 2°43.779 288.4 1.9 303 23.5
2011-03-15 09:20:14 51°24.67 2°43.775 281.8 2.1 295 24
2011-03-15 09:20:19 51°24.671 2°43.769 275.8 2.6 284 24
2011-03-15 09:20:24 51°24.671 2°43.763 270.9 3 280 24.4
2011-03-15 09:20:29 51°24.672 2°43.756 266.2 3.1 273 25.1
2011-03-15 09:20:34 51°24.672 2°43.749 260.9 2.9 273 25.4
2011-03-15 09:20:39 51°24.672 2°43.743 259.2 2.7 269 25.6
2011-03-15 09:20:44 51°24.672 2°43.738 257.3 2.4 268 25.9
2011-03-15 09:20:49 51°24.672 2°43.733 255.7 2.1 277 25.3
2011-03-15 09:20:54 51°24.672 2°43.73 254.3 1.7 267 25.2
2011-03-15 09:20:58 51°24.672 2°43.727 251.8 1.2 287 25.3
2011-03-15 09:21:04 51°24.672 2°43.725 249.3 0.6 296 23.5
2011-03-15 09:21:09 51°24.673 2°43.725 247.4 0.7 333 23.9